Time;durP1;ratioP1;P1;durP2;ratioP2;P2;SDS_P1;SDS_P2;PMS_P1;PMS_P2;Temp;Humidity;BMP_temperature;BMP_pressure;BME280_temperature;BME280_humidity;BME280_pressure;Samples;Min_cycle;Max_cycle;Signal;HPM_P1;HPM_P2
2021/07/06 00:00:29;;;;;;;20.17;3.63;;;14.80;99.90;;;;;;2103289;28;20091;-68
2021/07/06 00:01:30;;;;;;;26.25;4.28;;;14.80;99.90;;;;;;2103964;28;20052;-69
2021/07/06 00:02:31;;;;;;;28.08;4.45;;;14.80;99.90;;;;;;2104439;28;20028;-69
2021/07/06 00:03:32;;;;;;;24.60;4.38;;;14.80;99.90;;;;;;2103314;28;20031;-69
2021/07/06 00:04:32;;;;;;;25.63;4.15;;;14.90;99.90;;;;;;2098025;28;20559;-68
2021/07/06 00:05:33;;;;;;;24.33;4.90;;;14.90;99.90;;;;;;2102658;28;20125;-68
2021/07/06 00:06:34;;;;;;;26.65;5.63;;;14.90;99.90;;;;;;2102239;28;20094;-69
2021/07/06 00:07:35;;;;;;;30.73;4.57;;;14.90;99.90;;;;;;2095212;28;20024;-69
2021/07/06 00:08:35;;;;;;;26.17;4.25;;;14.90;99.90;;;;;;2106637;28;20379;-70
2021/07/06 00:09:36;;;;;;;37.05;6.05;;;14.90;99.90;;;;;;2103841;28;20050;-70
2021/07/06 00:10:37;;;;;;;31.88;5.05;;;14.90;99.90;;;;;;2101646;28;20023;-70
2021/07/06 00:11:38;;;;;;;36.67;4.70;;;14.90;99.90;;;;;;2101040;28;20028;-70
2021/07/06 00:12:39;;;;;;;26.85;4.72;;;14.90;99.90;;;;;;2094818;28;20024;-68
2021/07/06 00:13:40;;;;;;;25.52;4.30;;;14.90;99.90;;;;;;2096814;28;20048;-68
2021/07/06 00:14:40;;;;;;;31.38;5.07;;;14.90;99.90;;;;;;2098043;28;20651;-69
2021/07/06 00:15:41;;;;;;;28.08;5.28;;;14.90;99.90;;;;;;2098102;28;20032;-69
2021/07/06 00:16:43;;;;;;;36.90;5.03;;;14.90;99.90;;;;;;2091821;28;20067;-68
2021/07/06 00:17:44;;;;;;;;;;;14.90;99.90;;;;;;2097753;28;20025;-69
2021/07/06 00:18:44;;;;;;;45.08;5.20;;;14.90;99.90;;;;;;2105192;28;19908;-68
2021/07/06 00:19:46;;;;;;;31.75;4.93;;;14.90;99.90;;;;;;2114419;28;20149;-69
2021/07/06 00:20:47;;;;;;;34.65;4.88;;;14.90;99.90;;;;;;2092064;28;20039;-70
2021/07/06 00:21:48;;;;;;;33.00;4.67;;;14.80;99.90;;;;;;2097834;28;20698;-69
2021/07/06 00:22:48;;;;;;;25.67;4.57;;;14.90;99.90;;;;;;2098020;28;20259;-69
2021/07/06 00:23:49;;;;;;;31.20;4.85;;;14.80;99.90;;;;;;2097612;28;20020;-68
2021/07/06 00:24:50;;;;;;;34.08;5.43;;;14.80;99.90;;;;;;2097426;28;20675;-69
2021/07/06 00:25:51;;;;;;;29.55;4.65;;;14.80;99.90;;;;;;2096200;28;20021;-69
2021/07/06 00:26:51;;;;;;;32.65;4.70;;;14.80;99.90;;;;;;2111033;28;20490;-69
2021/07/06 00:27:53;;;;;;;28.65;4.78;;;14.70;99.90;;;;;;2106022;28;20544;-69
2021/07/06 00:28:54;;;;;;;30.63;4.90;;;14.70;99.90;;;;;;2094544;28;20062;-68
2021/07/06 00:29:54;;;;;;;25.10;4.93;;;14.70;99.90;;;;;;2098208;28;20419;-68
2021/07/06 00:30:55;;;;;;;26.50;4.47;;;14.70;99.90;;;;;;2097252;28;20063;-69
2021/07/06 00:31:56;;;;;;;33.85;4.82;;;14.80;99.90;;;;;;2097222;28;20534;-68
2021/07/06 00:32:57;;;;;;;22.85;4.35;;;14.80;99.90;;;;;;2094910;28;20056;-69
2021/07/06 00:33:58;;;;;;;34.70;4.43;;;14.80;99.90;;;;;;2095189;28;20027;-69
2021/07/06 00:34:59;;;;;;;20.10;4.13;;;14.90;99.90;;;;;;2089881;28;20623;-69
2021/07/06 00:36:01;;;;;;;34.47;4.65;;;14.90;99.90;;;;;;2089499;28;20032;-68
2021/07/06 00:37:02;;;;;;;26.70;4.10;;;14.80;99.90;;;;;;2091460;28;20036;-69
2021/07/06 00:38:03;;;;;;;22.98;4.53;;;14.80;99.90;;;;;;2098339;28;20035;-69
2021/07/06 00:39:05;;;;;;;28.17;4.25;;;14.70;99.90;;;;;;2093565;28;20396;-69
2021/07/06 00:40:07;;;;;;;28.48;4.07;;;14.70;99.90;;;;;;2091779;28;20583;-70
2021/07/06 00:41:08;;;;;;;21.58;3.60;;;14.70;99.90;;;;;;2097595;28;20093;-69
2021/07/06 00:42:10;;;;;;;27.83;4.45;;;14.70;99.90;;;;;;2097954;28;20043;-69
2021/07/06 00:43:10;;;;;;;31.02;4.10;;;14.70;99.90;;;;;;2098117;28;20023;-69
2021/07/06 00:44:19;;;;;;;24.27;4.20;;;14.70;99.90;;;;;;2097742;28;20107;-69
2021/07/06 00:45:21;;;;;;;32.00;4.47;;;14.70;99.90;;;;;;2097788;28;20020;-69
2021/07/06 00:46:22;;;;;;;28.50;4.57;;;14.70;99.90;;;;;;2097476;28;20452;-68
2021/07/06 00:47:37;;;;;;;26.33;4.43;;;14.80;99.90;;;;;;2089248;28;20033;-69
2021/07/06 00:48:38;;;;;;;25.17;4.82;;;14.80;99.90;;;;;;2089667;28;20496;-69
2021/07/06 00:49:39;;;;;;;25.00;4.47;;;14.90;99.90;;;;;;2097306;28;20440;-69
2021/07/06 00:50:39;;;;;;;22.55;3.92;;;14.90;99.90;;;;;;2097543;28;20028;-69
2021/07/06 00:51:40;;;;;;;23.58;4.60;;;14.90;99.90;;;;;;2098152;28;20047;-69
2021/07/06 00:52:41;;;;;;;28.33;3.67;;;14.90;99.90;;;;;;2097795;28;20043;-69
2021/07/06 00:53:42;;;;;;;24.77;4.30;;;14.90;99.90;;;;;;2098091;28;20730;-69
2021/07/06 00:54:43;;;;;;;21.27;3.45;;;14.80;99.90;;;;;;2093507;28;20029;-69
2021/07/06 00:55:45;;;;;;;24.90;3.55;;;14.80;99.90;;;;;;2089892;28;20031;-68
2021/07/06 00:56:46;;;;;;;21.00;3.45;;;14.80;99.90;;;;;;2097731;28;20497;-69
2021/07/06 00:57:47;;;;;;;34.30;4.20;;;14.80;99.90;;;;;;2097499;28;20499;-68
2021/07/06 00:58:48;;;;;;;22.42;3.75;;;14.80;99.90;;;;;;2098089;28;20404;-70
2021/07/06 00:59:49;;;;;;;19.40;4.38;;;14.70;99.90;;;;;;2098396;28;20021;-70
2021/07/06 01:00:50;;;;;;;21.42;4.32;;;14.70;99.90;;;;;;2098212;28;20060;-69
2021/07/06 01:01:50;;;;;;;20.93;3.87;;;14.70;99.90;;;;;;2097722;28;20504;-69
2021/07/06 01:02:52;;;;;;;21.27;4.18;;;14.70;99.90;;;;;;2096403;28;20029;-69
2021/07/06 01:03:53;;;;;;;20.17;3.80;;;14.70;99.90;;;;;;2096853;28;20071;-71
2021/07/06 01:04:54;;;;;;;24.35;4.40;;;14.70;99.90;;;;;;2087719;28;20518;-69
2021/07/06 01:05:54;;;;;;;30.23;3.97;;;14.70;99.90;;;;;;2090774;28;20021;-69
2021/07/06 01:06:55;;;;;;;23.00;4.40;;;14.70;99.90;;;;;;2107266;28;20051;-69
2021/07/06 01:07:56;;;;;;;27.95;5.10;;;14.80;99.90;;;;;;2109350;28;20635;-69
2021/07/06 01:08:57;;;;;;;20.45;4.72;;;14.80;99.90;;;;;;2097833;28;20028;-68
2021/07/06 01:09:57;;;;;;;25.25;3.88;;;14.90;99.90;;;;;;2091429;28;20040;-69
2021/07/06 01:11:00;;;;;;;22.73;3.72;;;14.90;99.90;;;;;;2089662;28;20033;-70
2021/07/06 01:12:01;;;;;;;17.42;3.67;;;14.90;99.90;;;;;;2097552;28;20024;-69
2021/07/06 01:13:05;;;;;;;28.90;4.03;;;14.90;99.90;;;;;;2097363;28;20784;-69
2021/07/06 01:14:06;;;;;;;23.98;4.35;;;14.90;99.90;;;;;;2094096;28;20024;-69
2021/07/06 01:15:10;;;;;;;24.00;3.95;;;14.90;99.90;;;;;;2097074;28;20020;-69
2021/07/06 01:16:10;;;;;;;21.52;3.45;;;14.90;99.90;;;;;;2094882;28;20025;-69
2021/07/06 01:17:11;;;;;;;31.80;3.95;;;14.90;99.90;;;;;;2088024;28;20109;-69
2021/07/06 01:18:17;;;;;;;23.88;3.13;;;15.00;99.90;;;;;;2089406;28;20139;-71
2021/07/06 01:19:18;;;;;;;22.02;3.55;;;15.00;99.90;;;;;;2095044;28;20049;-68
2021/07/06 01:20:22;;;;;;;24.48;3.97;;;15.00;99.90;;;;;;2089538;28;20021;-69
2021/07/06 01:21:22;;;;;;;22.67;4.28;;;15.00;99.90;;;;;;2089384;28;20402;-68
2021/07/06 01:22:31;;;;;;;26.10;4.45;;;15.10;99.90;;;;;;2088605;28;20025;-68
2021/07/06 01:23:32;;;;;;;20.45;3.90;;;15.10;99.90;;;;;;2088217;28;20028;-68
2021/07/06 01:24:39;;;;;;;19.48;3.80;;;15.10;99.90;;;;;;2088772;28;20024;-69
2021/07/06 01:25:42;;;;;;;25.13;3.50;;;15.10;99.90;;;;;;2088515;28;20072;-68
2021/07/06 01:26:43;;;;;;;21.05;4.13;;;15.10;99.90;;;;;;2085861;28;20539;-69
2021/07/06 01:27:44;;;;;;;29.05;4.30;;;15.00;99.90;;;;;;2080444;28;20086;-69
2021/07/06 01:28:44;;;;;;;21.92;3.85;;;15.10;99.90;;;;;;2092473;28;20016;-68
2021/07/06 01:29:45;;;;;;;25.35;4.85;;;15.10;99.90;;;;;;2097083;28;20020;-69
2021/07/06 01:30:46;;;;;;;21.23;3.50;;;15.20;99.90;;;;;;2088243;28;20033;-69
2021/07/06 01:31:51;;;;;;;22.00;3.42;;;15.00;99.90;;;;;;2089024;28;20071;-69
2021/07/06 01:32:52;;;;;;;22.58;3.20;;;15.10;99.90;;;;;;2084670;28;20029;-70
2021/07/06 01:33:55;;;;;;;26.75;4.60;;;15.10;99.90;;;;;;2085817;28;20059;-69
2021/07/06 01:34:56;;;;;;;22.40;4.38;;;15.10;99.90;;;;;;2088365;28;20037;-69
2021/07/06 01:36:02;;;;;;;28.40;3.92;;;15.10;99.90;;;;;;2088590;28;20017;-69
2021/07/06 01:37:03;;;;;;;22.52;3.70;;;15.10;99.90;;;;;;2081034;28;20056;-69
2021/07/06 01:38:06;;;;;;;29.02;4.85;;;15.10;99.90;;;;;;2086496;28;20051;-69
2021/07/06 01:39:07;;;;;;;30.27;5.15;;;15.10;99.90;;;;;;2083746;28;20029;-69
2021/07/06 01:40:08;;;;;;;21.27;3.92;;;15.20;99.90;;;;;;2081103;28;20507;-69
2021/07/06 01:41:09;;;;;;;15.98;3.25;;;15.10;99.90;;;;;;2104286;28;20033;-68
2021/07/06 01:42:10;;;;;;;25.50;4.50;;;15.20;99.90;;;;;;2105138;28;20519;-69
2021/07/06 01:43:10;;;;;;;23.77;3.45;;;15.20;99.90;;;;;;2089234;28;20103;-69
2021/07/06 01:44:25;;;;;;;23.08;4.78;;;15.20;99.90;;;;;;2086151;28;20074;-69
2021/07/06 01:45:28;;;;;;;26.80;3.72;;;15.20;99.90;;;;;;2099364;28;20058;-69
2021/07/06 01:46:29;;;;;;;22.08;4.03;;;15.20;99.90;;;;;;2102126;28;20028;-70
2021/07/06 01:47:29;;;;;;;24.02;3.47;;;15.20;99.90;;;;;;2084496;28;20021;-69
2021/07/06 01:48:31;;;;;;;25.58;4.18;;;15.10;99.90;;;;;;2090435;28;20028;-70
2021/07/06 01:49:33;;;;;;;21.88;4.05;;;15.10;99.90;;;;;;2089640;28;20029;-69
2021/07/06 01:50:37;;;;;;;23.13;4.00;;;15.20;99.90;;;;;;2084621;28;20524;-69
2021/07/06 01:51:38;;;;;;;24.92;3.55;;;15.20;99.90;;;;;;2081626;28;20136;-69
2021/07/06 01:52:43;;;;;;;22.48;4.07;;;15.20;99.90;;;;;;2081718;28;20535;-69
2021/07/06 01:53:43;;;;;;;29.83;4.68;;;15.20;99.90;;;;;;2080626;28;20025;-68
2021/07/06 01:54:44;;;;;;;22.40;3.63;;;15.20;99.90;;;;;;2087802;28;20420;-69
2021/07/06 01:55:48;;;;;;;19.98;4.20;;;15.20;99.90;;;;;;2088162;28;20025;-69
2021/07/06 01:56:48;;;;;;;35.70;5.53;;;15.20;99.90;;;;;;2081403;28;20375;-69
2021/07/06 01:57:50;;;;;;;22.50;3.97;;;15.20;99.90;;;;;;2086210;28;20082;-69
2021/07/06 01:58:51;;;;;;;19.25;3.63;;;15.20;99.90;;;;;;2089091;28;20025;-69
2021/07/06 01:59:52;;;;;;;15.32;3.33;;;15.20;99.90;;;;;;2088772;28;20043;-69
2021/07/06 02:00:59;;;;;;;19.97;3.20;;;15.20;99.90;;;;;;2088396;28;20115;-68
2021/07/06 02:01:59;;;;;;;25.25;3.80;;;15.20;99.90;;;;;;2088341;28;20311;-69
2021/07/06 02:03:01;;;;;;;25.08;5.13;;;15.20;99.90;;;;;;2085652;28;20120;-69
2021/07/06 02:04:03;;;;;;;;;;;15.30;99.90;;;;;;2087866;28;20053;-68
2021/07/06 02:05:18;;;;;;;26.73;4.13;;;15.30;99.90;;;;;;2096561;28;19904;-69
2021/07/06 02:06:19;;;;;;;27.45;4.28;;;15.30;99.90;;;;;;2088773;28;20066;-68
2021/07/06 02:07:19;;;;;;;22.50;4.00;;;15.30;99.90;;;;;;2078926;28;20018;-69
2021/07/06 02:08:21;;;;;;;24.15;5.00;;;15.40;99.90;;;;;;2095561;28;20032;-69
2021/07/06 02:09:21;;;;;;;27.17;4.72;;;15.30;99.90;;;;;;2089369;28;20075;-69
2021/07/06 02:10:24;;;;;;;26.83;5.10;;;15.30;99.90;;;;;;2089023;28;20111;-69
2021/07/06 02:11:25;;;;;;;21.55;3.83;;;15.30;99.90;;;;;;2088393;28;20009;-68
2021/07/06 02:12:26;;;;;;;24.92;4.50;;;15.30;99.90;;;;;;2088387;28;20021;-68
2021/07/06 02:13:27;;;;;;;25.08;3.95;;;15.30;99.90;;;;;;2095786;28;20081;-69
2021/07/06 02:14:28;;;;;;;25.43;4.13;;;15.30;99.90;;;;;;2083359;28;20025;-69
2021/07/06 02:15:30;;;;;;;23.02;3.70;;;15.30;99.90;;;;;;2082181;28;20355;-69
2021/07/06 02:16:30;;;;;;;27.90;4.35;;;15.30;99.90;;;;;;2085356;28;20017;-69
2021/07/06 02:17:31;;;;;;;21.65;3.65;;;15.30;99.90;;;;;;2088280;28;20397;-69
2021/07/06 02:18:32;;;;;;;17.30;3.88;;;15.20;99.90;;;;;;2091439;28;20020;-68
2021/07/06 02:19:33;;;;;;;25.95;4.18;;;15.30;99.90;;;;;;2097334;28;20028;-68
2021/07/06 02:20:34;;;;;;;30.38;5.15;;;15.20;99.90;;;;;;2090078;28;20021;-69
2021/07/06 02:21:34;;;;;;;30.15;3.58;;;15.30;99.90;;;;;;2088115;28;20021;-69
2021/07/06 02:22:36;;;;;;;23.50;3.92;;;15.30;99.90;;;;;;2089167;28;20140;-70
2021/07/06 02:23:37;;;;;;;;;;;15.30;99.90;;;;;;2084994;28;20048;-69
2021/07/06 02:24:38;;;;;;;21.50;4.45;;;15.30;99.90;;;;;;2080655;28;19947;-69
2021/07/06 02:25:38;;;;;;;26.80;5.43;;;15.30;99.90;;;;;;2088500;28;20078;-69
2021/07/06 02:26:39;;;;;;;28.50;4.75;;;15.30;99.90;;;;;;2103936;28;20035;-69
2021/07/06 02:27:42;;;;;;;26.48;4.40;;;15.30;99.90;;;;;;2105005;28;20078;-73
2021/07/06 02:28:43;;;;;;;34.70;4.50;;;15.30;99.90;;;;;;2092884;28;20134;-69
2021/07/06 02:29:44;;;;;;;15.48;3.65;;;15.30;99.90;;;;;;2083411;28;20521;-69
2021/07/06 02:30:45;;;;;;;18.67;3.92;;;15.30;99.90;;;;;;2087108;28;20029;-70
2021/07/06 02:31:46;;;;;;;27.70;4.80;;;15.30;99.90;;;;;;2084869;28;20128;-69
2021/07/06 02:32:47;;;;;;;22.73;4.28;;;15.30;99.90;;;;;;2088494;28;20559;-69
2021/07/06 02:33:48;;;;;;;19.73;3.92;;;15.30;99.90;;;;;;2088578;28;20024;-69
2021/07/06 02:34:48;;;;;;;26.33;4.38;;;15.20;99.90;;;;;;2088724;28;20060;-68
2021/07/06 02:35:50;;;;;;;26.80;4.97;;;15.30;99.90;;;;;;2082958;28;20025;-69
2021/07/06 02:36:51;;;;;;;21.27;3.40;;;15.30;99.90;;;;;;2086379;28;20021;-73
2021/07/06 02:37:51;;;;;;;21.40;3.67;;;15.30;99.90;;;;;;2093728;28;20025;-69
2021/07/06 02:38:52;;;;;;;27.23;4.50;;;15.30;99.90;;;;;;2096032;28;20025;-68
2021/07/06 02:39:53;;;;;;;24.35;3.78;;;15.30;99.90;;;;;;2088774;28;20028;-70
2021/07/06 02:40:54;;;;;;;20.67;4.15;;;15.30;99.90;;;;;;2087647;28;20511;-69
2021/07/06 02:41:54;;;;;;;25.52;4.20;;;15.30;99.90;;;;;;2083185;28;20473;-69
2021/07/06 02:42:56;;;;;;;25.25;3.42;;;15.30;99.90;;;;;;2080144;28;20025;-69
2021/07/06 02:43:57;;;;;;;;;;;15.20;99.90;;;;;;2080492;28;20032;-69
2021/07/06 02:44:58;;;;;;;16.20;3.22;;;15.20;99.90;;;;;;2096535;28;19904;-69
2021/07/06 02:45:58;;;;;;;26.58;3.67;;;15.30;99.90;;;;;;2093141;28;20020;-68
2021/07/06 02:46:59;;;;;;;24.00;3.25;;;15.30;99.90;;;;;;2086494;28;20028;-69
2021/07/06 02:48:00;;;;;;;21.10;3.63;;;15.30;99.90;;;;;;2081225;28;20049;-69
2021/07/06 02:49:01;;;;;;;32.67;4.93;;;15.30;99.90;;;;;;2083126;28;20036;-69
2021/07/06 02:50:03;;;;;;;25.50;3.55;;;15.30;99.90;;;;;;2089140;28;20059;-70
2021/07/06 02:51:04;;;;;;;24.17;3.47;;;15.30;99.90;;;;;;2093974;28;20090;-68
2021/07/06 02:52:05;;;;;;;19.65;3.08;;;15.30;99.90;;;;;;2097582;28;20534;-69
2021/07/06 02:53:09;;;;;;;18.50;3.78;;;15.30;99.90;;;;;;2088945;28;20523;-69
2021/07/06 02:54:10;;;;;;;27.42;4.75;;;15.40;99.90;;;;;;2087674;28;20124;-69
2021/07/06 02:55:12;;;;;;;18.58;3.40;;;15.40;99.90;;;;;;2095960;28;20028;-70
2021/07/06 02:56:13;;;;;;;27.45;3.28;;;15.40;99.90;;;;;;2100313;28;20040;-69
2021/07/06 02:57:33;;;;;;;21.42;3.63;;;15.40;99.90;;;;;;2087583;28;20028;-69
2021/07/06 02:58:34;;;;;;;33.80;4.05;;;15.40;99.90;;;;;;2085529;28;20032;-69
2021/07/06 02:59:35;;;;;;;25.23;3.58;;;15.40;99.90;;;;;;2089729;28;20085;-69
2021/07/06 03:00:36;;;;;;;21.98;4.38;;;15.40;99.90;;;;;;2104641;28;20690;-69
2021/07/06 03:01:36;;;;;;;19.63;3.65;;;15.40;99.90;;;;;;2104358;28;20036;-69
2021/07/06 03:02:38;;;;;;;24.23;4.22;;;15.40;99.90;;;;;;2085087;28;20025;-69
2021/07/06 03:03:39;;;;;;;;;;;15.40;99.90;;;;;;2081368;28;20025;-69
2021/07/06 03:04:40;;;;;;;18.40;3.40;;;15.40;99.90;;;;;;2088008;28;20368;-68
2021/07/06 03:05:40;;;;;;;21.92;4.30;;;15.40;99.90;;;;;;2080796;28;20029;-69
2021/07/06 03:06:41;;;;;;;29.52;3.95;;;15.40;99.90;;;;;;2088355;28;20017;-69
2021/07/06 03:07:43;;;;;;;21.65;4.00;;;15.40;99.90;;;;;;2089818;28;20090;-69
2021/07/06 03:08:43;;;;;;;26.10;3.47;;;15.40;99.90;;;;;;2096538;28;20505;-69
2021/07/06 03:09:44;;;;;;;30.95;5.13;;;15.40;99.90;;;;;;2091697;28;20029;-68
2021/07/06 03:10:44;;;;;;;25.83;4.10;;;15.40;99.90;;;;;;2088842;28;20120;-69
2021/07/06 03:11:45;;;;;;;26.50;3.53;;;15.40;99.90;;;;;;2085162;28;20513;-68
2021/07/06 03:12:46;;;;;;;26.17;4.28;;;15.40;99.90;;;;;;2080223;28;20026;-69
2021/07/06 03:13:47;;;;;;;16.23;3.63;;;15.50;99.90;;;;;;2080580;28;20512;-69
2021/07/06 03:14:48;;;;;;;21.67;4.88;;;15.40;99.90;;;;;;2084954;28;20507;-69
2021/07/06 03:15:48;;;;;;;21.85;3.70;;;15.40;99.90;;;;;;2088995;28;20045;-68
2021/07/06 03:16:49;;;;;;;26.50;3.40;;;15.40;99.90;;;;;;2091666;28;20100;-68
2021/07/06 03:17:50;;;;;;;27.67;4.57;;;15.40;99.90;;;;;;2085334;28;20029;-69
2021/07/06 03:18:51;;;;;;;19.35;3.58;;;15.40;99.90;;;;;;2086047;28;20027;-69
2021/07/06 03:19:52;;;;;;;21.13;4.60;;;15.50;99.90;;;;;;2102965;28;20032;-68
2021/07/06 03:20:52;;;;;;;28.13;4.32;;;15.40;99.90;;;;;;2104895;28;20032;-69
2021/07/06 03:21:53;;;;;;;18.27;3.58;;;15.50;99.90;;;;;;2088541;28;20067;-69
2021/07/06 03:22:54;;;;;;;29.58;4.28;;;15.40;99.90;;;;;;2104780;28;20111;-69
2021/07/06 03:23:55;;;;;;;25.88;5.97;;;15.50;99.90;;;;;;2104558;28;20051;-69
2021/07/06 03:24:56;;;;;;;25.75;4.88;;;15.50;99.90;;;;;;2089447;28;20021;-70
2021/07/06 03:25:57;;;;;;;22.52;3.92;;;15.40;99.90;;;;;;2086345;28;20025;-69
2021/07/06 03:26:58;;;;;;;22.60;3.88;;;15.40;99.90;;;;;;2085517;28;20568;-70
2021/07/06 03:28:00;;;;;;;22.92;3.17;;;15.40;99.90;;;;;;2089624;28;20025;-71
2021/07/06 03:29:01;;;;;;;23.88;3.95;;;15.40;99.90;;;;;;2094794;28;20537;-75
2021/07/06 03:30:07;;;;;;;23.45;3.85;;;15.40;99.90;;;;;;2098387;28;20028;-71
2021/07/06 03:31:07;;;;;;;20.35;3.70;;;15.40;99.90;;;;;;2079942;28;20021;-71
2021/07/06 03:32:10;;;;;;;20.45;3.50;;;15.40;99.90;;;;;;2084447;28;20025;-71
2021/07/06 03:33:11;;;;;;;19.30;2.92;;;15.40;99.90;;;;;;2088940;28;20100;-70
2021/07/06 03:34:12;;;;;;;17.00;3.35;;;15.40;99.90;;;;;;2085365;28;20459;-69
2021/07/06 03:35:13;;;;;;;17.85;4.18;;;15.40;99.90;;;;;;2081094;28;20036;-68
2021/07/06 03:36:14;;;;;;;18.98;3.33;;;15.40;99.90;;;;;;2088525;28;20504;-69
2021/07/06 03:37:15;;;;;;;18.33;2.90;;;15.40;99.90;;;;;;2104230;28;20150;-69
2021/07/06 03:38:15;;;;;;;20.77;3.60;;;15.40;99.90;;;;;;2102330;28;20028;-69
2021/07/06 03:39:16;;;;;;;15.65;2.58;;;15.40;99.90;;;;;;2087429;28;20087;-69
2021/07/06 03:40:17;;;;;;;22.48;4.43;;;15.40;99.90;;;;;;2088541;28;20473;-69
2021/07/06 03:41:18;;;;;;;17.67;2.78;;;15.40;99.90;;;;;;2089057;28;20047;-69
2021/07/06 03:42:19;;;;;;;18.98;3.50;;;15.40;99.90;;;;;;2089414;28;20083;-69
2021/07/06 03:43:20;;;;;;;23.20;3.47;;;15.40;99.90;;;;;;2088365;28;20062;-70
2021/07/06 03:44:20;;;;;;;17.00;2.90;;;15.40;99.90;;;;;;2088167;28;20029;-69
2021/07/06 03:45:22;;;;;;;14.18;2.88;;;15.30;99.90;;;;;;2085307;28;20022;-69
2021/07/06 03:46:26;;;;;;;;;;;15.30;99.90;;;;;;2087582;28;20017;-69
2021/07/06 03:47:26;;;;;;;18.73;3.75;;;15.30;99.90;;;;;;2089815;28;20497;-69
2021/07/06 03:48:27;;;;;;;19.70;2.75;;;15.30;99.90;;;;;;2089109;28;20108;-70
2021/07/06 03:49:28;;;;;;;12.48;2.67;;;15.40;99.90;;;;;;2090012;28;20017;-69
2021/07/06 03:50:29;;;;;;;14.35;3.13;;;15.30;99.90;;;;;;2090341;28;20025;-69
2021/07/06 03:51:32;;;;;;;17.58;3.25;;;15.30;99.90;;;;;;2090119;28;20048;-70
2021/07/06 03:52:33;;;;;;;25.70;3.58;;;15.30;99.90;;;;;;2087919;28;20061;-70
2021/07/06 03:53:34;;;;;;;21.38;3.15;;;15.30;99.90;;;;;;2082153;28;20079;-69
2021/07/06 03:54:35;;;;;;;13.65;3.40;;;15.30;99.90;;;;;;2086939;28;20025;-69
2021/07/06 03:55:35;;;;;;;20.55;2.80;;;15.30;99.90;;;;;;2089592;28;20059;-70
2021/07/06 03:56:36;;;;;;;13.80;2.88;;;15.30;99.90;;;;;;2090051;28;20053;-70
2021/07/06 03:57:37;;;;;;;18.40;2.70;;;15.30;99.90;;;;;;2091271;28;20020;-69
2021/07/06 03:58:38;;;;;;;16.33;3.45;;;15.40;99.90;;;;;;2089640;28;20091;-69
2021/07/06 03:59:38;;;;;;;16.92;2.92;;;15.40;99.90;;;;;;2090988;28;20523;-70
2021/07/06 04:00:39;;;;;;;19.05;3.05;;;15.40;99.90;;;;;;2080459;28;20410;-69
2021/07/06 04:01:39;;;;;;;15.40;3.35;;;15.40;99.90;;;;;;2084116;28;20037;-69
2021/07/06 04:02:40;;;;;;;9.40;2.33;;;15.40;99.90;;;;;;2105758;28;20183;-69
2021/07/06 04:03:41;;;;;;;18.95;2.90;;;15.40;99.90;;;;;;2089537;28;20095;-69
2021/07/06 04:04:42;;;;;;;17.48;3.30;;;15.40;99.90;;;;;;2087853;28;20029;-69
2021/07/06 04:05:42;;;;;;;19.65;2.80;;;15.40;99.90;;;;;;2090297;28;20100;-69
2021/07/06 04:06:43;;;;;;;12.85;2.78;;;15.40;99.90;;;;;;2089738;28;20095;-69
2021/07/06 04:07:45;;;;;;;14.43;2.70;;;15.40;99.90;;;;;;2091146;28;20017;-69
2021/07/06 04:08:45;;;;;;;18.02;3.08;;;15.40;99.90;;;;;;2090049;28;20380;-69
2021/07/06 04:09:46;;;;;;;19.20;2.70;;;15.40;99.90;;;;;;2088982;28;20025;-69
2021/07/06 04:10:46;;;;;;;22.33;3.42;;;15.40;99.90;;;;;;2081346;28;20427;-69
2021/07/06 04:11:47;;;;;;;18.42;2.95;;;15.40;99.90;;;;;;2089204;28;20190;-69
2021/07/06 04:12:49;;;;;;;9.73;1.98;;;15.40;99.90;;;;;;2083578;28;20108;-70
2021/07/06 04:13:50;;;;;;;18.48;2.67;;;15.40;99.90;;;;;;2091208;28;20054;-70
2021/07/06 04:14:51;;;;;;;21.27;3.53;;;15.40;99.90;;;;;;2090465;28;20032;-69
2021/07/06 04:15:51;;;;;;;10.68;2.65;;;15.40;99.90;;;;;;2090117;28;20031;-69
2021/07/06 04:16:52;;;;;;;16.15;3.25;;;15.50;99.90;;;;;;2089477;28;20525;-69
2021/07/06 04:17:53;;;;;;;21.42;2.95;;;15.50;99.90;;;;;;2089920;28;20411;-68
2021/07/06 04:18:53;;;;;;;18.17;2.85;;;15.50;99.90;;;;;;2095913;28;20522;-69
2021/07/06 04:19:56;;;;;;;15.13;3.15;;;15.50;99.90;;;;;;2082985;28;20033;-69
2021/07/06 04:20:57;;;;;;;19.52;3.25;;;15.50;99.90;;;;;;2091172;28;20111;-69
2021/07/06 04:21:58;;;;;;;15.02;2.63;;;15.50;99.90;;;;;;2086692;28;20451;-69
2021/07/06 04:22:58;;;;;;;14.68;2.67;;;15.40;99.90;;;;;;2090114;28;20599;-69
2021/07/06 04:23:59;;;;;;;16.77;3.08;;;15.50;99.90;;;;;;2095894;28;20021;-69
2021/07/06 04:25:00;;;;;;;17.15;2.47;;;15.50;99.90;;;;;;2097609;28;20044;-69
2021/07/06 04:26:01;;;;;;;15.00;3.25;;;15.50;99.90;;;;;;2093503;28;20048;-69
2021/07/06 04:27:02;;;;;;;15.98;2.78;;;15.50;99.90;;;;;;2094762;28;20041;-70
2021/07/06 04:28:04;;;;;;;8.55;1.85;;;15.50;99.90;;;;;;2089926;28;20017;-69
2021/07/06 04:29:05;;;;;;;11.10;2.67;;;15.50;99.90;;;;;;2086663;28;20025;-69
2021/07/06 04:30:07;;;;;;;13.13;2.30;;;15.50;99.90;;;;;;2083941;28;20426;-69
2021/07/06 04:31:08;;;;;;;19.75;3.50;;;15.50;99.90;;;;;;2083211;28;20076;-69
2021/07/06 04:32:09;;;;;;;15.68;2.33;;;15.50;99.90;;;;;;2080066;28;20761;-69
2021/07/06 04:33:10;;;;;;;10.80;2.08;;;15.60;99.90;;;;;;2088064;28;20029;-69
2021/07/06 04:34:11;;;;;;;10.33;1.90;;;15.60;99.90;;;;;;2093855;28;20060;-70
2021/07/06 04:35:12;;;;;;;16.38;2.15;;;15.60;99.90;;;;;;2089621;28;20658;-69
2021/07/06 04:36:13;;;;;;;9.82;2.58;;;15.60;99.90;;;;;;2089834;28;20071;-70
2021/07/06 04:37:13;;;;;;;10.13;2.42;;;15.50;99.90;;;;;;2088996;28;20055;-69
2021/07/06 04:38:14;;;;;;;13.10;1.90;;;15.60;99.90;;;;;;2089439;28;20040;-69
2021/07/06 04:39:15;;;;;;;17.00;2.67;;;15.60;99.90;;;;;;2080351;28;20029;-70
2021/07/06 04:40:16;;;;;;;15.68;2.92;;;15.60;99.90;;;;;;2088254;28;20083;-70
2021/07/06 04:41:17;;;;;;;12.35;2.00;;;15.60;99.90;;;;;;2082799;28;20028;-70
2021/07/06 04:42:18;;;;;;;20.95;3.10;;;15.60;99.90;;;;;;2084474;28;20063;-69
2021/07/06 04:43:19;;;;;;;18.35;2.58;;;15.60;99.90;;;;;;2086641;28;20043;-69
2021/07/06 04:44:19;;;;;;;15.05;3.10;;;15.70;99.90;;;;;;2086983;28;20096;-70
2021/07/06 04:45:20;;;;;;;20.15;3.13;;;15.60;99.90;;;;;;2081749;28;20021;-69
2021/07/06 04:46:20;;;;;;;11.32;2.42;;;15.60;99.90;;;;;;2089810;28;20021;-69
2021/07/06 04:47:21;;;;;;;21.95;2.85;;;15.60;99.90;;;;;;2089760;28;20382;-70
2021/07/06 04:48:22;;;;;;;18.38;2.70;;;15.70;99.90;;;;;;2089771;28;20050;-69
2021/07/06 04:49:23;;;;;;;14.75;2.85;;;15.60;99.90;;;;;;2084722;28;20055;-69
2021/07/06 04:50:23;;;;;;;18.40;2.90;;;15.60;99.90;;;;;;2089495;28;20493;-70
2021/07/06 04:51:24;;;;;;;19.33;3.33;;;15.70;99.90;;;;;;2105405;28;20020;-69
2021/07/06 04:52:25;;;;;;;17.58;2.40;;;15.70;99.90;;;;;;2101116;28;20070;-70
2021/07/06 04:53:26;;;;;;;17.52;2.30;;;15.70;99.90;;;;;;2097085;28;20086;-70
2021/07/06 04:54:26;;;;;;;17.52;3.00;;;15.70;99.90;;;;;;2097220;28;20016;-69
2021/07/06 04:55:27;;;;;;;16.77;2.33;;;15.70;99.90;;;;;;2081609;28;20560;-69
2021/07/06 04:56:28;;;;;;;19.52;3.63;;;15.70;99.90;;;;;;2089160;28;20523;-69
2021/07/06 04:57:29;;;;;;;20.25;3.25;;;15.70;99.90;;;;;;2087483;28;20136;-70
2021/07/06 04:58:29;;;;;;;13.30;1.98;;;15.70;99.90;;;;;;2081505;28;20505;-69
2021/07/06 04:59:30;;;;;;;19.27;2.33;;;15.70;99.90;;;;;;2086203;28;20036;-70
2021/07/06 05:00:31;;;;;;;19.73;2.80;;;15.70;99.90;;;;;;2085856;28;20025;-70
2021/07/06 05:01:33;;;;;;;18.50;2.40;;;15.70;99.90;;;;;;2088088;28;20029;-70
2021/07/06 05:02:34;;;;;;;19.65;2.80;;;15.70;99.90;;;;;;2090437;28;20025;-71
2021/07/06 05:03:36;;;;;;;13.10;2.67;;;15.70;99.90;;;;;;2090053;28;20040;-70
2021/07/06 05:04:36;;;;;;;17.05;2.65;;;15.60;99.90;;;;;;2088915;28;20065;-70
2021/07/06 05:05:39;;;;;;;8.75;1.85;;;15.60;99.90;;;;;;2089137;28;20029;-69
2021/07/06 05:06:41;;;;;;;13.23;2.38;;;15.60;99.90;;;;;;2089092;28;20028;-69
2021/07/06 05:07:42;;;;;;;20.42;2.75;;;15.60;99.90;;;;;;2088674;28;20531;-69
2021/07/06 05:08:43;;;;;;;14.60;2.80;;;15.60;99.90;;;;;;2097190;28;20025;-70
2021/07/06 05:09:44;;;;;;;15.57;2.90;;;15.60;99.90;;;;;;2101035;28;20444;-69
2021/07/06 05:10:46;;;;;;;17.65;2.78;;;15.60;99.90;;;;;;2081228;28;20032;-70
2021/07/06 05:11:47;;;;;;;16.27;3.17;;;15.60;99.90;;;;;;2085423;28;20080;-70
2021/07/06 05:12:47;;;;;;;18.15;2.85;;;15.60;99.90;;;;;;2083266;28;20108;-69
2021/07/06 05:13:48;;;;;;;21.30;2.88;;;15.60;99.90;;;;;;2089560;28;20028;-69
2021/07/06 05:14:49;;;;;;;15.10;2.65;;;15.60;99.90;;;;;;2082729;28;20030;-70
2021/07/06 05:15:50;;;;;;;17.70;2.72;;;15.60;99.90;;;;;;2084376;28;20025;-69